Observations for LAWRENCE MUNICIPAL, MA (LWM)

KLWM 250154Z 09006KT 10SM CLR 14/07 A3021 RMK AO2 SLP229 T01440067  
KLWM 250054Z 12003KT 10SM CLR 16/07 A3019 RMK AO2 SLP222 T01560067  
KLWM 242354Z VRB03KT 10SM CLR 17/07 A3016 RMK AO2 SLP213 T01670067 10228 20167 53008
KLWM 242254Z 13008KT 10SM CLR 18/05 A3015 RMK AO2 SLP208 T01830050  
KLWM 242154Z 14007KT 10SM CLR 21/03 A3014 RMK AO2 SLP207 T02060028  
KLWM 242054Z VRB06G14KT 10SM CLR 22/01 A3014 RMK AO2 SLP205 T02170011 55005 
KLWM 241954Z 14009KT 10SM CLR 22/02 A3014 RMK AO2 SLP205 T02220022  
KLWM 241854Z 15008KT 10SM CLR 22/03 A3014 RMK AO2 SLP207 T02220033  
KLWM 241754Z 08006KT 10SM CLR 22/03 A3015 RMK AO2 SLP210 T02220033 10228 20100 58007
KLWM 241654Z 00000KT 10SM CLR 21/01 A3016 RMK AO2 SLP214 T02110011  
KLWM 241554Z VRB03KT 10SM CLR 21/01 A3018 RMK AO2 SLP220 T02060011  
KLWM 241454Z 00000KT 10SM CLR 18/03 A3018 RMK AO2 SLP218 T01830033 50004
KLWM 241354Z 00000KT 10SM CLR 16/04 A3018 RMK AO2 SLP220 T01610044  
KLWM 241254Z 23003KT 10SM CLR 13/05 A3017 RMK AO2 SLP216 T01330050  
KLWM 241154Z 22004KT 10SM CLR 10/05 A3016 RMK AO2 SLP215 T01000050 10100 20056 51022
KLWM 241054Z 21005KT 10SM CLR 07/04 A3015 RMK AO2 SLP210 T00720039  
KLWM 240954Z AUTO 20005KT 10SM CLR 07/04 A3013 RMK AO2 SLP202 T00670039 
KLWM 240854Z AUTO 22004KT 10SM CLR 07/04 A3010 RMK AO2 SLP192 T00720039 53003   
KLWM 240754Z AUTO 19004KT 10SM CLR 08/04 A3010 RMK AO2 SLP191 T00780039 
KLWM 240654Z AUTO 20009KT 10SM CLR 08/04 A3009 RMK AO2 SLP189 T00830044 
KLWM 240554Z AUTO 20008KT 10SM CLR 09/04 A3009 RMK AO2 SLP189 T00890044 10133 20089 51003   
KLWM 240454Z AUTO 21006KT 10SM CLR 10/04 A3009 RMK AO2 SLP187 T01000044 402000033   
KLWM 240354Z AUTO 21006KT 10SM CLR 11/04 A3009 RMK AO2 SLP188 T01060044 
KLWM 240254Z AUTO 20008KT 10SM CLR 12/04 A3008 RMK AO2 SLP186 T01170044 51010   
KLWM 240154Z 20008KT 10SM CLR 12/05 A3008 RMK AO2 SLP186 T01220050